Time;durP1;ratioP1;P1;durP2;ratioP2;P2;SDS_P1;SDS_P2;PMS_P1;PMS_P2;Temp;Humidity;BMP_temperature;BMP_pressure;BME280_temperature;BME280_humidity;BME280_pressure;Samples;Min_cycle;Max_cycle;Signal;HPM_P1;HPM_P2
2021/01/19 00:00:41;;;;;;;40.45;19.45;;;64.30;2176.00;;;;;;5091495;28;20024;-63
2021/01/19 00:03:07;;;;;;;42.55;20.08;;;64.30;2150.40;;;;;;5092084;28;20675;-63
2021/01/19 00:05:33;;;;;;;35.20;17.05;;;64.30;2176.00;;;;;;5091564;28;20541;-63
2021/01/19 00:07:58;;;;;;;40.33;19.67;;;64.30;2176.00;;;;;;5091682;28;20020;-63
2021/01/19 00:10:24;;;;;;;45.25;19.98;;;64.40;2176.00;;;;;;5091018;28;20039;-63
2021/01/19 00:12:49;;;;;;;38.92;19.13;;;64.30;2176.00;;;;;;5090584;28;20721;-63
2021/01/19 00:15:15;;;;;;;36.72;18.15;;;64.40;2176.00;;;;;;5090920;28;20024;-63
2021/01/19 00:17:41;;;;;;;42.83;20.85;;;64.30;2176.00;;;;;;5090809;28;20020;-64
2021/01/19 00:20:07;;;;;;;48.13;22.15;;;64.30;2176.00;;;;;;5091122;28;20061;-64
2021/01/19 00:22:33;;;;;;;47.40;22.30;;;64.40;2176.00;;;;;;5090877;28;20111;-64
2021/01/19 00:25:00;;;;;;;52.92;23.75;;;64.30;2176.00;;;;;;5090426;28;20110;-64
2021/01/19 00:27:25;;;;;;;56.22;25.15;;;64.40;2176.00;;;;;;5090505;28;20104;-64
2021/01/19 00:29:51;;;;;;;48.03;20.65;;;64.40;2201.60;;;;;;5090348;28;20095;-66
2021/01/19 00:32:17;;;;;;;46.47;21.13;;;64.40;2176.00;;;;;;5090521;28;20081;-63
2021/01/19 00:34:42;;;;;;;39.83;19.73;;;64.30;2176.00;;;;;;5057636;28;20500;-63
2021/01/19 00:37:08;;;;;;;43.65;19.98;;;64.30;2176.00;;;;;;5089958;28;20059;-63
2021/01/19 00:39:33;;;;;;;50.05;21.98;;;64.30;2176.00;;;;;;5091038;28;20503;-63
2021/01/19 00:41:59;;;;;;;48.25;23.00;;;64.40;2176.00;;;;;;5090050;28;20070;-63
2021/01/19 00:44:25;;;;;;;47.65;22.10;;;64.30;2176.00;;;;;;5087924;28;20028;-62
2021/01/19 00:46:51;;;;;;;49.83;21.00;;;64.30;2176.00;;;;;;5090084;28;20024;-68
2021/01/19 00:49:17;;;;;;;51.15;21.77;;;64.30;2150.40;;;;;;5089763;28;20069;-69
2021/01/19 00:51:43;;;;;;;40.20;19.95;;;64.30;2150.40;;;;;;5090205;28;20451;-63
2021/01/19 00:54:09;;;;;;;35.00;17.13;;;64.30;2150.40;;;;;;5090394;28;20049;-65
2021/01/19 00:56:39;;;;;;;39.28;16.85;;;64.30;2150.40;;;;;;5091732;28;20547;-62
2021/01/19 00:59:05;;;;;;;29.95;15.18;;;64.40;2150.40;;;;;;5090781;28;20024;-65
2021/01/19 01:01:31;;;;;;;40.42;18.60;;;64.30;2150.40;;;;;;5091147;28;20028;-64
2021/01/19 01:03:57;;;;;;;42.83;19.85;;;64.30;2176.00;;;;;;5086352;28;20024;-64
2021/01/19 01:06:22;;;;;;;38.85;18.38;;;64.30;2176.00;;;;;;5091684;28;20053;-65
2021/01/19 01:08:48;;;;;;;39.40;19.17;;;64.30;2176.00;;;;;;5091794;28;20008;-64
2021/01/19 01:11:14;;;;;;;37.58;18.48;;;64.30;2176.00;;;;;;5091798;28;20143;-62
2021/01/19 01:13:39;;;;;;;43.17;20.08;;;64.30;2176.00;;;;;;5094621;28;20392;-63
2021/01/19 01:16:10;;;;;;;42.35;19.75;;;64.30;2176.00;;;;;;5094304;28;20114;-64
2021/01/19 01:18:35;;;;;;;;;;;64.30;2176.00;;;;;;5095454;28;20032;-64
2021/01/19 01:21:01;;;;;;;35.47;17.08;;;64.40;2150.40;;;;;;5094279;28;19904;-64
2021/01/19 01:23:26;;;;;;;39.33;18.15;;;64.40;2176.00;;;;;;5095285;28;20075;-64
2021/01/19 01:25:52;;;;;;;43.50;19.52;;;64.40;2150.40;;;;;;5095569;28;20032;-64
2021/01/19 01:28:18;;;;;;;33.08;16.45;;;64.40;2176.00;;;;;;5095593;28;20024;-64
2021/01/19 01:30:43;;;;;;;34.80;16.83;;;64.40;2150.40;;;;;;5095513;28;20523;-64
2021/01/19 01:33:09;;;;;;;31.83;15.10;;;64.40;2176.00;;;;;;5095543;28;20024;-62
2021/01/19 01:35:35;;;;;;;32.92;15.32;;;64.40;2150.40;;;;;;5095405;28;20530;-62
2021/01/19 01:38:00;;;;;;;36.33;16.48;;;64.40;2150.40;;;;;;5095082;28;20523;-65
2021/01/19 01:40:26;;;;;;;30.40;14.30;;;64.50;2176.00;;;;;;5095265;28;20082;-64
2021/01/19 01:42:55;;;;;;;29.77;14.43;;;64.60;2176.00;;;;;;5095345;28;20026;-64
2021/01/19 01:45:21;;;;;;;27.40;14.88;;;64.60;2176.00;;;;;;5094987;28;20036;-64
2021/01/19 01:47:48;;;;;;;32.67;13.93;;;64.80;2201.60;;;;;;5095537;28;20038;-64
2021/01/19 01:50:14;;;;;;;27.20;14.57;;;64.90;2201.60;;;;;;5077024;28;20016;-65
2021/01/19 01:52:40;;;;;;;27.63;14.00;;;89.60;2201.60;;;;;;5076967;28;20065;-63
2021/01/19 01:55:06;;;;;;;31.27;14.70;;;89.60;2201.60;;;;;;5094917;28;20405;-63
2021/01/19 01:57:32;;;;;;;34.35;15.80;;;89.60;2201.60;;;;;;5095055;28;20406;-62
2021/01/19 02:00:01;;;;;;;31.48;15.60;;;64.90;2201.60;;;;;;5077064;28;20069;-62
2021/01/19 02:02:26;;;;;;;33.92;15.93;;;64.80;2201.60;;;;;;5094692;28;20020;-63
2021/01/19 02:04:52;;;;;;;43.20;18.73;;;64.80;2201.60;;;;;;5094877;28;20024;-63
2021/01/19 02:07:48;;;;;;;42.15;19.40;;;64.70;2201.60;;;;;;5094630;28;20020;-63
2021/01/19 02:10:43;;;;;;;44.92;19.65;;;64.60;2201.60;;;;;;5049123;28;20119;-63
2021/01/19 02:13:18;;;;;;;45.67;18.40;;;64.60;2176.00;;;;;;5076888;28;20393;-63
2021/01/19 02:15:48;;;;;;;32.30;14.43;;;64.50;2176.00;;;;;;5076313;28;20473;-63
2021/01/19 02:18:22;;;;;;;33.17;16.80;;;64.50;2176.00;;;;;;5076527;28;20028;-63
2021/01/19 02:21:12;;;;;;;30.33;15.52;;;64.50;2201.60;;;;;;5094336;28;20076;-63
2021/01/19 02:24:04;;;;;;;28.70;14.20;;;64.50;2201.60;;;;;;5075245;28;20587;-63
2021/01/19 02:26:41;;;;;;;25.42;12.70;;;64.60;2176.00;;;;;;5090397;28;20389;-64
2021/01/19 02:29:32;;;;;;;29.33;14.15;;;64.60;2201.60;;;;;;5094119;28;20024;-64
2021/01/19 02:32:12;;;;;;;26.67;13.95;;;64.60;2176.00;;;;;;5079134;28;20055;-63
2021/01/19 02:34:47;;;;;;;24.85;12.93;;;64.60;2176.00;;;;;;5077290;28;20035;-63
2021/01/19 02:37:56;;;;;;;26.38;13.27;;;64.70;2201.60;;;;;;5076163;28;20051;-64
2021/01/19 02:40:21;;;;;;;26.38;13.82;;;64.70;2201.60;;;;;;5053948;28;20040;-63
2021/01/19 02:43:12;;;;;;;42.20;17.88;;;64.70;2201.60;;;;;;5094112;28;20431;-63
2021/01/19 02:45:38;;;;;;;30.25;14.90;;;64.70;2201.60;;;;;;5078697;28;20370;-63
2021/01/19 02:48:04;;;;;;;28.92;15.02;;;64.70;2176.00;;;;;;5093954;28;20066;-63
2021/01/19 02:50:31;;;;;;;30.85;15.73;;;64.60;2201.60;;;;;;5093852;28;20031;-63
2021/01/19 02:52:58;;;;;;;30.58;16.33;;;64.70;2201.60;;;;;;5093967;28;20031;-63
2021/01/19 02:55:23;;;;;;;34.60;17.75;;;64.60;2201.60;;;;;;5075978;28;20099;-64
2021/01/19 02:58:11;;;;;;;33.45;16.95;;;64.60;2201.60;;;;;;5075622;28;20445;-65
2021/01/19 03:01:02;;;;;;;34.75;16.08;;;64.60;2201.60;;;;;;5065956;28;20043;-63
2021/01/19 03:03:35;;;;;;;31.13;15.02;;;64.60;2201.60;;;;;;5088609;28;20491;-63
2021/01/19 03:06:05;;;;;;;32.10;16.33;;;64.60;2201.60;;;;;;5076544;28;20024;-64
2021/01/19 03:08:32;;;;;;;;;;;64.60;2201.60;;;;;;5076633;28;20354;-64
2021/01/19 03:10:57;;;;;;;27.83;13.77;;;64.50;2176.00;;;;;;5092723;28;19904;-63
2021/01/19 03:13:23;;;;;;;30.35;15.10;;;64.50;2150.40;;;;;;5075537;28;20346;-63
2021/01/19 03:15:49;;;;;;;26.85;13.35;;;64.50;2150.40;;;;;;5093576;28;20440;-63
2021/01/19 03:18:14;;;;;;;24.45;12.45;;;64.50;2124.80;;;;;;5075146;28;20028;-63
2021/01/19 03:20:40;;;;;;;26.65;12.75;;;64.50;2124.80;;;;;;5075098;28;20024;-64
2021/01/19 03:23:06;;;;;;;22.85;11.43;;;64.50;2150.40;;;;;;5093551;28;20054;-63
2021/01/19 03:25:31;;;;;;;27.65;12.75;;;64.60;2099.20;;;;;;5091793;28;20035;-63
2021/01/19 03:27:57;;;;;;;22.63;11.20;;;64.60;2124.80;;;;;;5093436;28;20016;-63
2021/01/19 03:30:23;;;;;;;22.85;11.27;;;64.60;2124.80;;;;;;5093018;28;20058;-64
2021/01/19 03:32:48;;;;;;;25.58;12.55;;;64.60;2124.80;;;;;;5093132;28;20465;-63
2021/01/19 03:35:14;;;;;;;25.45;12.68;;;64.70;2124.80;;;;;;5092728;28;20472;-63
2021/01/19 03:37:40;;;;;;;23.85;11.70;;;64.60;2150.40;;;;;;5092743;28;20043;-63
2021/01/19 03:40:06;;;;;;;25.95;12.73;;;64.60;2150.40;;;;;;5091824;28;20073;-64
2021/01/19 03:42:31;;;;;;;28.77;14.25;;;64.60;2150.40;;;;;;5092870;28;20127;-63
2021/01/19 03:44:57;;;;;;;27.40;13.73;;;64.50;2150.40;;;;;;5092833;28;20103;-64
2021/01/19 03:47:23;;;;;;;27.52;13.13;;;64.50;2150.40;;;;;;5092694;28;20060;-65
2021/01/19 03:49:48;;;;;;;28.52;14.25;;;64.40;2150.40;;;;;;5092721;28;20027;-63
2021/01/19 03:52:14;;;;;;;31.88;14.23;;;64.40;2150.40;;;;;;5092696;28;20504;-64
2021/01/19 03:54:40;;;;;;;29.02;13.57;;;64.30;2150.40;;;;;;5092538;28;20016;-63
2021/01/19 03:57:05;;;;;;;29.58;14.00;;;64.30;2150.40;;;;;;5092736;28;20080;-63
2021/01/19 03:59:31;;;;;;;26.70;13.40;;;64.30;2150.40;;;;;;5074552;28;20366;-63
2021/01/19 04:01:57;;;;;;;28.63;13.18;;;64.30;2176.00;;;;;;5092421;28;20093;-63
2021/01/19 04:04:22;;;;;;;30.58;13.65;;;64.30;2150.40;;;;;;5092478;28;20047;-63
2021/01/19 04:06:48;;;;;;;25.55;12.73;;;64.40;2176.00;;;;;;5092570;28;20035;-64
2021/01/19 04:09:13;;;;;;;26.75;14.10;;;64.40;2201.60;;;;;;5092416;28;20016;-64
2021/01/19 04:11:39;;;;;;;30.27;13.70;;;64.40;2150.40;;;;;;5092358;28;20032;-63
2021/01/19 04:14:05;;;;;;;28.63;14.65;;;64.40;2150.40;;;;;;5092436;28;20012;-64
2021/01/19 04:16:30;;;;;;;33.63;15.20;;;64.30;2150.40;;;;;;5092281;28;20027;-64
2021/01/19 04:18:56;;;;;;;31.38;16.05;;;64.30;2150.40;;;;;;5092299;28;20024;-64
2021/01/19 04:21:23;;;;;;;31.08;15.02;;;64.20;2150.40;;;;;;5092272;28;20380;-63
2021/01/19 04:23:49;;;;;;;27.02;14.18;;;64.30;2176.00;;;;;;5092359;28;20457;-64
2021/01/19 04:26:14;;;;;;;32.03;16.67;;;64.30;2201.60;;;;;;5092257;28;20027;-64
2021/01/19 04:28:40;;;;;;;38.03;18.00;;;64.30;2150.40;;;;;;5092240;28;20024;-63
2021/01/19 04:31:06;;;;;;;29.10;12.90;;;64.30;2176.00;;;;;;5091222;28;20027;-63
2021/01/19 04:33:31;;;;;;;31.92;15.55;;;64.30;2124.80;;;;;;5092089;28;20035;-63
2021/01/19 04:35:57;;;;;;;21.02;10.70;;;64.30;2150.40;;;;;;5091913;28;20024;-63
2021/01/19 04:38:23;;;;;;;28.52;14.73;;;64.30;2150.40;;;;;;5092039;28;20040;-63
2021/01/19 04:40:48;;;;;;;32.70;16.98;;;64.40;2201.60;;;;;;5092004;28;20046;-66
2021/01/19 04:43:15;;;;;;;25.38;12.55;;;64.40;2176.00;;;;;;5073915;28;20030;-63
2021/01/19 04:45:41;;;;;;;24.98;12.75;;;64.30;2176.00;;;;;;5092251;28;20032;-64
2021/01/19 04:48:08;;;;;;;37.38;16.33;;;64.40;2201.60;;;;;;5076333;28;20469;-63
2021/01/19 04:50:34;;;;;;;28.60;13.00;;;64.50;2201.60;;;;;;5078027;28;20434;-63
2021/01/19 04:52:59;;;;;;;29.35;14.48;;;64.50;2201.60;;;;;;5078699;28;20028;-63
2021/01/19 04:55:26;;;;;;;31.60;15.15;;;64.40;2201.60;;;;;;5078039;28;20028;-64
2021/01/19 04:58:01;;;;;;;28.05;12.93;;;64.40;2201.60;;;;;;5096434;28;20397;-64
2021/01/19 05:00:34;;;;;;;26.63;13.35;;;64.50;2201.60;;;;;;5095994;28;20056;-63
2021/01/19 05:03:03;;;;;;;40.03;17.42;;;64.50;2201.60;;;;;;5096013;28;20024;-63
2021/01/19 05:05:38;;;;;;;33.22;16.15;;;64.50;2201.60;;;;;;5081501;28;20110;-64
2021/01/19 05:08:18;;;;;;;36.38;16.35;;;64.50;2201.60;;;;;;5096219;28;20016;-63
2021/01/19 05:11:02;;;;;;;31.15;15.10;;;64.50;2201.60;;;;;;5095975;28;20020;-63
2021/01/19 05:13:36;;;;;;;32.70;13.90;;;64.50;2201.60;;;;;;5095617;28;20024;-63
2021/01/19 05:16:03;;;;;;;38.92;17.23;;;64.50;2201.60;;;;;;5095856;28;20496;-64
2021/01/19 05:18:28;;;;;;;39.22;18.55;;;64.50;2201.60;;;;;;5095707;28;20434;-65
2021/01/19 05:20:54;;;;;;;41.03;16.52;;;64.60;2201.60;;;;;;5077518;28;20016;-64
2021/01/19 05:23:22;;;;;;;49.65;21.65;;;64.50;2201.60;;;;;;5077516;28;20150;-64
2021/01/19 05:25:54;;;;;;;35.45;17.23;;;64.50;2201.60;;;;;;5095571;28;20027;-64
2021/01/19 05:28:41;;;;;;;34.40;16.02;;;64.50;2201.60;;;;;;5095208;28;20099;-63
2021/01/19 05:31:19;;;;;;;37.63;18.75;;;64.50;2201.60;;;;;;5095049;28;20032;-63
2021/01/19 05:34:03;;;;;;;28.08;12.68;;;64.40;2201.60;;;;;;5095565;28;20032;-63
2021/01/19 05:36:37;;;;;;;30.70;15.57;;;64.50;2201.60;;;;;;5095169;28;20073;-63
2021/01/19 05:39:04;;;;;;;32.00;15.50;;;64.60;2201.60;;;;;;5095143;28;20044;-63
2021/01/19 05:41:41;;;;;;;28.25;14.82;;;64.60;2201.60;;;;;;5095235;28;20028;-63
2021/01/19 05:44:13;;;;;;;27.83;13.98;;;64.60;2201.60;;;;;;5095449;28;20118;-63
2021/01/19 05:46:50;;;;;;;35.65;16.05;;;64.60;2201.60;;;;;;5094998;28;20016;-64
2021/01/19 05:49:23;;;;;;;42.13;16.92;;;64.70;2201.60;;;;;;5095309;28;20435;-64
2021/01/19 05:51:50;;;;;;;43.83;18.67;;;64.70;2201.60;;;;;;5095155;28;20020;-63
2021/01/19 05:54:27;;;;;;;29.20;13.50;;;64.70;2201.60;;;;;;5095314;28;20076;-63
2021/01/19 05:57:12;;;;;;;30.98;15.52;;;64.70;2201.60;;;;;;5095135;28;20388;-64
2021/01/19 05:59:42;;;;;;;29.17;13.07;;;64.70;2201.60;;;;;;5094648;28;20442;-63
2021/01/19 06:02:18;;;;;;;30.58;14.38;;;64.70;2201.60;;;;;;5093934;28;20035;-63
2021/01/19 06:04:48;;;;;;;27.25;14.48;;;64.70;2201.60;;;;;;5076140;28;20028;-63
2021/01/19 06:07:18;;;;;;;;;;;64.70;2201.60;;;;;;5091116;28;20035;-64
2021/01/19 06:09:44;;;;;;;49.28;20.42;;;64.70;2201.60;;;;;;5094690;28;19908;-64
2021/01/19 06:12:10;;;;;;;35.78;15.82;;;64.60;2201.60;;;;;;5093565;28;20073;-64
2021/01/19 06:14:36;;;;;;;38.55;15.85;;;64.60;2201.60;;;;;;5094159;28;20116;-63
2021/01/19 06:17:07;;;;;;;39.10;18.88;;;64.60;2201.60;;;;;;5093341;28;20028;-64
2021/01/19 06:19:33;;;;;;;36.33;17.63;;;64.60;2201.60;;;;;;5073481;28;20051;-63
2021/01/19 06:22:04;;;;;;;37.78;18.13;;;64.60;2201.60;;;;;;5093575;28;20016;-63
2021/01/19 06:24:38;;;;;;;40.50;18.75;;;64.60;2201.60;;;;;;5093191;28;20028;-63
2021/01/19 06:27:04;;;;;;;38.92;18.85;;;64.50;2201.60;;;;;;5089814;28;20537;-62
2021/01/19 06:29:31;;;;;;;30.85;15.90;;;64.50;2201.60;;;;;;5094021;28;20428;-63
2021/01/19 06:31:58;;;;;;;37.15;18.08;;;64.50;2201.60;;;;;;5094551;28;20020;-63
2021/01/19 06:34:28;;;;;;;34.33;17.58;;;64.40;2201.60;;;;;;5092811;28;20028;-63
2021/01/19 06:36:54;;;;;;;40.15;21.33;;;64.30;2201.60;;;;;;5091714;28;20048;-62
2021/01/19 06:39:40;;;;;;;32.60;17.25;;;64.20;2201.60;;;;;;5076327;28;20023;-63
2021/01/19 06:42:11;;;;;;;40.78;17.63;;;64.20;2176.00;;;;;;5094924;28;20020;-63
2021/01/19 06:44:41;;;;;;;33.95;15.05;;;64.20;2176.00;;;;;;5093911;28;20020;-63
2021/01/19 06:47:07;;;;;;;45.08;19.92;;;64.20;2176.00;;;;;;5093826;28;20023;-66
2021/01/19 06:49:37;;;;;;;36.78;18.52;;;64.20;2176.00;;;;;;5093846;28;20028;-63
2021/01/19 06:52:05;;;;;;;41.28;18.90;;;64.20;2201.60;;;;;;5094058;28;20109;-63
2021/01/19 06:54:46;;;;;;;27.73;14.75;;;64.20;2176.00;;;;;;5092900;28;20044;-62
2021/01/19 06:57:27;;;;;;;30.58;16.77;;;64.20;2176.00;;;;;;5084428;28;20020;-64
2021/01/19 07:00:11;;;;;;;60.25;26.83;;;64.20;2176.00;;;;;;5093743;28;20574;-63
2021/01/19 07:02:40;;;;;;;30.50;14.35;;;64.00;2176.00;;;;;;5093487;28;20047;-62
2021/01/19 07:05:16;;;;;;;33.47;16.83;;;64.10;2150.40;;;;;;5093358;28;20185;-62
2021/01/19 07:07:42;;;;;;;36.40;19.55;;;64.10;2176.00;;;;;;5075952;28;20039;-63
2021/01/19 07:10:14;;;;;;;47.28;22.77;;;64.10;2176.00;;;;;;5092751;28;20024;-62
2021/01/19 07:13:05;;;;;;;36.70;15.05;;;64.00;2150.40;;;;;;5093083;28;20027;-64
2021/01/19 07:15:50;;;;;;;32.30;15.48;;;64.00;2150.40;;;;;;5091687;28;20028;-64
2021/01/19 07:18:49;;;;;;;48.20;21.63;;;64.00;2150.40;;;;;;5086273;28;20028;-64
2021/01/19 07:21:16;;;;;;;51.80;23.02;;;39.30;2176.00;;;;;;5082741;28;20031;-64
2021/01/19 07:23:44;;;;;;;54.03;25.38;;;39.20;2176.00;;;;;;5092546;28;20051;-65
2021/01/19 07:26:15;;;;;;;49.05;23.02;;;39.30;2150.40;;;;;;5092972;28;20028;-63
2021/01/19 07:28:41;;;;;;;40.45;20.52;;;39.30;2150.40;;;;;;5091957;28;20013;-64
2021/01/19 07:31:07;;;;;;;34.50;16.50;;;39.30;2176.00;;;;;;5092929;28;20410;-64
2021/01/19 07:33:32;;;;;;;57.45;25.05;;;64.00;2150.40;;;;;;5093110;28;20099;-64
2021/01/19 07:35:58;;;;;;;40.95;20.95;;;39.30;2176.00;;;;;;5074741;28;20107;-64
2021/01/19 07:38:25;;;;;;;43.92;20.10;;;39.30;2176.00;;;;;;5093026;28;20374;-64
2021/01/19 07:40:51;;;;;;;41.45;20.67;;;64.00;2176.00;;;;;;5093031;28;20524;-64
2021/01/19 07:43:17;;;;;;;29.90;15.05;;;39.30;2150.40;;;;;;5092955;28;20115;-63
2021/01/19 07:45:53;;;;;;;37.15;17.13;;;39.30;2150.40;;;;;;5093012;28;20050;-64
2021/01/19 07:48:32;;;;;;;51.17;23.25;;;64.00;2176.00;;;;;;5092549;28;20020;-63
2021/01/19 07:51:12;;;;;;;41.83;19.60;;;39.20;2176.00;;;;;;5092883;28;20468;-64
2021/01/19 07:53:48;;;;;;;48.65;24.13;;;39.30;2176.00;;;;;;5092807;28;20103;-64
2021/01/19 07:56:25;;;;;;;51.53;24.65;;;39.20;2201.60;;;;;;5092866;28;20028;-64
2021/01/19 07:58:51;;;;;;;42.28;20.67;;;39.10;2176.00;;;;;;5092699;28;20089;-64
2021/01/19 08:01:34;;;;;;;51.40;24.20;;;39.00;2150.40;;;;;;5092932;28;20468;-64
2021/01/19 08:04:12;;;;;;;45.92;20.58;;;39.00;2176.00;;;;;;5080038;28;20397;-64
2021/01/19 08:06:39;;;;;;;46.42;20.08;;;39.10;2150.40;;;;;;5092403;28;20116;-64
2021/01/19 08:09:18;;;;;;;53.25;22.30;;;39.20;2176.00;;;;;;5092452;28;20468;-64
2021/01/19 08:11:44;;;;;;;48.67;23.23;;;39.20;2176.00;;;;;;5092291;28;20139;-63
2021/01/19 08:14:10;;;;;;;56.72;24.02;;;39.20;2176.00;;;;;;5092478;28;20389;-64
2021/01/19 08:16:36;;;;;;;80.07;29.98;;;39.30;2176.00;;;;;;5092379;28;20032;-64
2021/01/19 08:19:15;;;;;;;69.45;27.85;;;64.00;2201.60;;;;;;5092423;28;20028;-64
2021/01/19 08:21:40;;;;;;;70.68;29.27;;;39.30;2201.60;;;;;;5092237;28;20066;-64
2021/01/19 08:24:07;;;;;;;54.28;22.02;;;39.20;2201.60;;;;;;5091754;28;20427;-64
2021/01/19 08:26:33;;;;;;;56.78;23.90;;;39.10;2176.00;;;;;;5092038;28;20066;-64
2021/01/19 08:29:00;;;;;;;65.57;25.08;;;38.90;2150.40;;;;;;5092158;28;20051;-64
2021/01/19 08:31:30;;;;;;;47.28;20.35;;;38.80;2124.80;;;;;;5091936;28;20510;-64
2021/01/19 08:34:08;;;;;;;37.80;17.67;;;38.90;2099.20;;;;;;5092227;28;20535;-63
2021/01/19 08:36:34;;;;;;;64.68;26.13;;;38.80;2099.20;;;;;;5091805;28;20044;-64
2021/01/19 08:39:01;;;;;;;32.85;15.60;;;38.80;2099.20;;;;;;5092076;28;20031;-65
2021/01/19 08:41:27;;;;;;;33.35;15.63;;;38.90;2099.20;;;;;;5091916;28;20027;-64
2021/01/19 08:44:02;;;;;;;33.17;16.00;;;38.90;2124.80;;;;;;5092114;28;20028;-64
2021/01/19 08:46:31;;;;;;;38.58;18.65;;;38.90;2099.20;;;;;;5092184;28;20380;-64
2021/01/19 08:49:04;;;;;;;49.95;23.23;;;38.80;2124.80;;;;;;5074086;28;20024;-64
2021/01/19 08:51:29;;;;;;;41.15;20.55;;;38.50;2099.20;;;;;;5091773;28;20063;-64
2021/01/19 08:53:55;;;;;;;36.60;19.75;;;38.50;2073.60;;;;;;5092237;28;20039;-64
2021/01/19 08:56:22;;;;;;;41.13;20.48;;;38.40;2073.60;;;;;;5091605;28;20032;-64
2021/01/19 08:58:48;;;;;;;41.47;20.15;;;13.70;2073.60;;;;;;5090971;28;20035;-64
2021/01/19 09:01:14;;;;;;;33.70;17.67;;;13.60;2048.00;;;;;;5091629;28;20028;-64
2021/01/19 09:03:40;;;;;;;28.63;14.85;;;13.60;2048.00;;;;;;5091837;28;20028;-65
2021/01/19 09:06:10;;;;;;;27.33;14.00;;;13.50;1996.80;;;;;;5091457;28;20027;-64
2021/01/19 09:08:38;;;;;;;32.53;16.40;;;13.50;1996.80;;;;;;5091954;28;20381;-65
2021/01/19 09:11:08;;;;;;;44.22;20.70;;;13.50;1971.20;;;;;;5091837;28;20020;-64
2021/01/19 09:13:37;;;;;;;37.60;19.23;;;13.50;1996.80;;;;;;5091325;28;20480;-64
2021/01/19 09:16:03;;;;;;;53.75;21.58;;;13.60;1996.80;;;;;;5091602;28;20536;-64
2021/01/19 09:18:29;;;;;;;36.08;17.95;;;13.60;1996.80;;;;;;5073401;28;20031;-64
2021/01/19 09:21:04;;;;;;;45.85;20.90;;;13.60;1996.80;;;;;;5091799;28;20024;-64
2021/01/19 09:23:31;;;;;;;39.45;17.77;;;13.40;1996.80;;;;;;5091576;28;20488;-64
2021/01/19 09:26:02;;;;;;;43.92;23.83;;;13.30;1971.20;;;;;;5091717;28;20107;-64
2021/01/19 09:28:28;;;;;;;68.55;31.90;;;13.20;1971.20;;;;;;5091706;28;20025;-64
2021/01/19 09:30:53;;;;;;;31.67;16.02;;;13.30;1971.20;;;;;;5091412;28;20047;-64
2021/01/19 09:33:19;;;;;;;38.20;19.70;;;13.30;1945.60;;;;;;5092448;28;20024;-64
2021/01/19 09:35:45;;;;;;;43.60;21.77;;;13.30;1945.60;;;;;;5076762;28;20068;-64
2021/01/19 09:38:14;;;;;;;41.30;21.63;;;13.10;1971.20;;;;;;5094955;28;20396;-64
2021/01/19 09:40:41;;;;;;;38.75;19.98;;;12.90;1920.00;;;;;;5095290;28;20020;-64
2021/01/19 09:43:07;;;;;;;42.35;21.23;;;13.00;1945.60;;;;;;5094789;28;20024;-64
2021/01/19 09:45:36;;;;;;;66.95;37.95;;;12.90;1920.00;;;;;;5095269;28;20036;-66
2021/01/19 09:48:02;;;;;;;41.83;23.15;;;0.10;1920.00;;;;;;5077085;28;20056;-66
2021/01/19 09:50:27;;;;;;;42.28;24.48;;;0.20;1920.00;;;;;;5077274;28;20052;-64
2021/01/19 09:52:53;;;;;;;41.47;22.55;;;0.40;1894.40;;;;;;5095021;28;20129;-64
2021/01/19 09:55:20;;;;;;;39.55;20.55;;;0.20;1920.00;;;;;;5094974;28;20427;-64
2021/01/19 09:58:05;;;;;;;57.75;30.35;;;0.10;1920.00;;;;;;5095168;28;20110;-65
2021/01/19 10:00:32;;;;;;;45.22;21.95;;;0.10;1920.00;;;;;;5094208;28;20430;-64
2021/01/19 10:03:15;;;;;;;47.67;26.92;;;0.20;1945.60;;;;;;5093535;28;20069;-64
2021/01/19 10:05:41;;;;;;;35.60;17.70;;;0.30;1945.60;;;;;;5092141;28;20024;-64
2021/01/19 10:08:10;;;;;;;34.75;21.10;;;0.40;1894.40;;;;;;5093617;28;20028;-65
2021/01/19 10:10:36;;;;;;;42.92;25.73;;;0.30;1894.40;;;;;;5094202;28;20020;-64
2021/01/19 10:13:03;;;;;;;44.17;25.50;;;0.70;1868.80;;;;;;5094157;28;20077;-65
2021/01/19 10:15:29;;;;;;;42.72;25.52;;;0.70;1868.80;;;;;;5093195;28;20031;-65
2021/01/19 10:17:58;;;;;;;26.27;14.70;;;0.80;1868.80;;;;;;5075968;28;20020;-64
2021/01/19 10:20:31;;;;;;;30.88;17.73;;;0.90;1843.20;;;;;;5093838;28;20146;-65
2021/01/19 10:22:56;;;;;;;27.95;15.38;;;26.00;1843.20;;;;;;5092991;28;20031;-64
2021/01/19 10:25:30;;;;;;;27.52;14.10;;;26.20;1792.00;;;;;;5093661;28;20032;-64
2021/01/19 10:28:00;;;;;;;34.22;18.48;;;26.00;1792.00;;;;;;5091274;28;20031;-64
2021/01/19 10:30:33;;;;;;;28.00;15.77;;;26.30;1792.00;;;;;;5093438;28;20022;-66
2021/01/19 10:32:59;;;;;;;31.73;17.42;;;26.30;1766.40;;;;;;5092061;28;20435;-65
2021/01/19 10:35:26;;;;;;;31.50;18.55;;;51.50;1715.20;;;;;;5093531;28;20020;-65
2021/01/19 10:37:56;;;;;;;40.38;23.50;;;51.60;1715.20;;;;;;5093249;28;20107;-65
2021/01/19 10:40:22;;;;;;;26.80;15.70;;;51.80;1715.20;;;;;;5094068;28;20023;-64
2021/01/19 10:42:49;;;;;;;22.70;13.10;;;51.80;1689.60;;;;;;5093987;28;20020;-66
2021/01/19 10:45:25;;;;;;;26.80;15.35;;;51.40;1715.20;;;;;;5092104;28;20038;-65
2021/01/19 10:47:51;;;;;;;20.63;12.32;;;51.30;1740.80;;;;;;5093250;28;20132;-67
2021/01/19 10:50:21;;;;;;;23.95;13.50;;;51.40;1715.20;;;;;;5093525;28;20464;-67
2021/01/19 10:53:05;;;;;;;27.25;15.75;;;51.60;1715.20;;;;;;5092658;28;20052;-66
2021/01/19 10:55:31;;;;;;;32.17;17.23;;;26.40;1740.80;;;;;;5072645;28;20056;-66
2021/01/19 10:57:58;;;;;;;56.40;31.52;;;26.40;1792.00;;;;;;5092647;28;20146;-64
2021/01/19 11:00:24;;;;;;;36.28;20.75;;;26.40;1792.00;;;;;;5093065;28;20012;-64
2021/01/19 11:02:50;;;;;;;61.17;29.30;;;51.30;1766.40;;;;;;5092824;28;20494;-64
2021/01/19 11:05:16;;;;;;;55.08;25.45;;;51.50;1792.00;;;;;;5091287;28;20028;-64
2021/01/19 11:07:45;;;;;;;57.35;25.85;;;51.30;1766.40;;;;;;5091496;28;20385;-64
2021/01/19 11:10:13;;;;;;;45.13;22.08;;;51.50;1766.40;;;;;;5092065;28;20059;-65
2021/01/19 11:12:38;;;;;;;46.00;23.25;;;51.50;1766.40;;;;;;5092791;28;20078;-64
2021/01/19 11:15:06;;;;;;;45.25;22.67;;;51.50;1766.40;;;;;;5092158;28;20024;-64
2021/01/19 11:17:31;;;;;;;37.72;19.00;;;51.60;1766.40;;;;;;5092750;28;20027;-65
2021/01/19 11:19:57;;;;;;;44.67;23.33;;;51.60;1766.40;;;;;;5092942;28;20528;-64
2021/01/19 11:22:23;;;;;;;32.03;17.27;;;52.10;1715.20;;;;;;5092835;28;20043;-64
2021/01/19 11:24:48;;;;;;;30.45;17.38;;;76.90;1689.60;;;;;;5092837;28;20070;-64
2021/01/19 11:27:14;;;;;;;28.30;15.75;;;77.10;1638.40;;;;;;5092376;28;20066;-66
2021/01/19 11:29:40;;;;;;;38.28;22.13;;;77.50;1638.40;;;;;;5092752;28;20016;-64
2021/01/19 11:32:05;;;;;;;38.90;21.90;;;77.60;1612.80;;;;;;5092475;28;20032;-62
2021/01/19 11:34:31;;;;;;;34.90;21.42;;;77.50;1612.80;;;;;;5091723;28;20122;-62
2021/01/19 11:36:56;;;;;;;31.27;18.38;;;77.40;1638.40;;;;;;5092374;28;20571;-63
2021/01/19 11:39:22;;;;;;;32.15;17.30;;;77.30;1638.40;;;;;;5092605;28;20047;-63
2021/01/19 11:41:48;;;;;;;33.83;17.80;;;77.60;1638.40;;;;;;5074095;28;20029;-64
2021/01/19 11:44:14;;;;;;;28.10;15.02;;;77.60;1587.20;;;;;;5092383;28;20028;-63
2021/01/19 11:46:39;;;;;;;23.08;13.10;;;77.10;1664.00;;;;;;5091698;28;20039;-63
2021/01/19 11:49:06;;;;;;;29.98;16.10;;;77.10;1638.40;;;;;;5092567;28;20081;-63
2021/01/19 11:51:33;;;;;;;25.90;14.05;;;77.50;1638.40;;;;;;5091700;28;20110;-63
2021/01/19 11:54:00;;;;;;;34.33;19.77;;;77.60;1587.20;;;;;;5092185;28;20434;-63
2021/01/19 11:56:52;;;;;;;26.80;14.98;;;102.80;1587.20;;;;;;5091684;28;20104;-66
2021/01/19 11:59:19;;;;;;;30.30;17.50;;;103.20;1510.40;;;;;;5085589;28;20112;-65
2021/01/19 12:01:51;;;;;;;27.25;15.45;;;128.80;1459.20;;;;;;5092026;28;20106;-64
2021/01/19 12:04:16;;;;;;;28.83;16.10;;;153.90;1382.40;;;;;;5042959;28;20020;-64
2021/01/19 12:06:42;;;;;;;25.85;14.85;;;154.10;1382.40;;;;;;5091843;28;20024;-64
2021/01/19 12:09:09;;;;;;;27.23;15.13;;;154.20;1356.80;;;;;;5091832;28;20024;-66
2021/01/19 12:11:39;;;;;;;43.15;22.38;;;179.50;1305.60;;;;;;5091680;28;20099;-63
2021/01/19 12:14:05;;;;;;;35.53;17.55;;;205.60;1228.80;;;;;;5092086;28;20027;-63
2021/01/19 12:16:30;;;;;;;37.35;19.80;;;230.50;1177.60;;;;;;5091648;28;20028;-63
2021/01/19 12:18:56;;;;;;;23.80;14.65;;;231.10;1126.40;;;;;;5091599;28;20103;-64